Time;durP1;ratioP1;P1;durP2;ratioP2;P2;SDS_P1;SDS_P2;PMS_P1;PMS_P2;Temp;Humidity;BMP_temperature;BMP_pressure;BME280_temperature;BME280_humidity;BME280_pressure;Samples;Min_cycle;Max_cycle;Signal;HPM_P1;HPM_P2
2023/06/20 00:01:04;;;;;;;9.70;6.43;;;;;;;;;;5076096;28;20044;-88
2023/06/20 00:03:30;;;;;;;7.65;5.28;;;;;;;;;;5089006;28;20690;-88
2023/06/20 00:05:56;;;;;;;7.65;6.05;;;;;;;;;;5079715;28;20051;-86
2023/06/20 00:08:22;;;;;;;9.25;5.88;;;;;;;;;;5099366;28;20023;-89
2023/06/20 00:10:48;;;;;;;7.75;5.57;;;;;;;;;;5077856;28;20032;-88
2023/06/20 00:13:17;;;;;;;6.20;5.28;;;;;;;;;;5099957;28;20024;-89
2023/06/20 00:15:43;;;;;;;6.78;5.72;;;;;;;;;;5099344;28;20024;-89
2023/06/20 00:18:09;;;;;;;7.20;5.43;;;;;;;;;;5088388;28;20020;-87
2023/06/20 00:20:35;;;;;;;5.97;4.95;;;;;;;;;;5089802;28;20034;-89
2023/06/20 00:23:02;;;;;;;10.07;5.25;;;;;;;;;;5087790;28;20032;-90
2023/06/20 00:25:28;;;;;;;8.20;5.55;;;;;;;;;;5074635;28;20062;-86
2023/06/20 00:27:54;;;;;;;9.35;5.50;;;;;;;;;;5089795;28;20034;-89
2023/06/20 00:30:20;;;;;;;7.28;5.72;;;;;;;;;;5076481;28;20100;-90
2023/06/20 00:32:46;;;;;;;8.13;5.70;;;;;;;;;;5089519;28;20024;-87
2023/06/20 00:35:12;;;;;;;7.22;4.72;;;;;;;;;;5096877;28;20043;-91
2023/06/20 00:37:38;;;;;;;8.15;5.75;;;;;;;;;;5075611;28;20734;-89
2023/06/20 00:40:07;;;;;;;8.00;5.78;;;;;;;;;;5095134;28;20036;-88
2023/06/20 00:42:33;;;;;;;7.70;5.70;;;;;;;;;;5080322;28;20027;-88
2023/06/20 00:44:59;;;;;;;8.07;5.97;;;;;;;;;;5069318;28;20028;-90
2023/06/20 00:47:25;;;;;;;8.48;6.05;;;;;;;;;;5107827;28;20766;-88
2023/06/20 00:49:51;;;;;;;7.28;5.93;;;;;;;;;;5102947;28;20028;-89
2023/06/20 00:52:18;;;;;;;7.78;6.20;;;;;;;;;;5093852;28;20039;-87
2023/06/20 00:54:46;;;;;;;8.90;6.03;;;;;;;;;;5103571;28;20053;-89
2023/06/20 00:57:14;;;;;;;6.75;5.95;;;;;;;;;;5097484;28;21763;-90
2023/06/20 00:59:43;;;;;;;8.13;6.20;;;;;;;;;;5105225;28;20031;-89
2023/06/20 01:02:10;;;;;;;6.93;6.03;;;;;;;;;;5087097;28;20054;-89
2023/06/20 01:04:36;;;;;;;7.40;5.72;;;;;;;;;;5090241;28;20038;-89
2023/06/20 01:07:07;;;;;;;7.35;5.97;;;;;;;;;;5103714;28;20035;-89
2023/06/20 01:09:44;;;;;;;8.02;6.03;;;;;;;;;;5101275;28;20035;-90
2023/06/20 01:12:28;;;;;;;8.82;6.70;;;;;;;;;;5100063;28;20031;-87
2023/06/20 01:15:10;;;;;;;7.68;6.28;;;;;;;;;;5100297;28;20034;-89
2023/06/20 01:17:58;;;;;;;7.30;6.15;;;21.40;99.90;;;;;;5076979;28;20016;-91
2023/06/20 01:20:33;;;;;;;8.98;6.53;;;21.40;99.90;;;;;;5102420;28;20039;-90
2023/06/20 01:23:02;;;;;;;7.88;5.78;;;;;;;;;;5099020;28;20024;-88
2023/06/20 01:25:28;;;;;;;7.97;5.57;;;;;;;;;;5107018;28;20408;-89
2023/06/20 01:28:06;;;;;;;8.25;5.93;;;;;;;;;;5085325;28;20044;-89
2023/06/20 01:31:10;;;;;;;7.80;6.30;;;21.40;99.90;;;;;;5094763;28;20056;-90
2023/06/20 01:33:44;;;;;;;8.50;6.40;;;;;;;;;;5094631;28;20451;-88
2023/06/20 01:36:10;;;;;;;8.45;5.95;;;21.30;99.90;;;;;;5097411;28;20024;-89
2023/06/20 01:38:38;;;;;;;7.28;6.45;;;21.30;99.90;;;;;;5101237;28;20025;-91
2023/06/20 01:41:05;;;;;;;8.40;6.50;;;;;;;;;;5082225;28;20032;-89
2023/06/20 01:43:31;;;;;;;8.50;6.68;;;;;;;;;;5091552;28;20024;-90
2023/06/20 01:45:57;;;;;;;7.43;6.40;;;;;;;;;;5096770;28;20080;-90
2023/06/20 01:48:24;;;;;;;7.22;6.53;;;21.00;99.90;;;;;;5096996;28;20035;-90
2023/06/20 01:50:53;;;;;;;8.95;6.80;;;;;;;;;;5086675;28;20020;-91
2023/06/20 01:53:19;;;;;;;7.95;6.63;;;;;;;;;;5103762;28;20004;-90
2023/06/20 01:55:47;;;;;;;7.30;6.60;;;;;;;;;;5106417;28;20043;-87
2023/06/20 01:58:14;;;;;;;8.52;7.22;;;20.70;99.90;;;;;;5100991;28;20366;-89
2023/06/20 02:00:41;;;;;;;8.32;6.85;;;;;;;;;;5077763;28;20056;-89
2023/06/20 02:03:08;;;;;;;8.02;6.80;;;;;;;;;;5079941;28;20063;-91
2023/06/20 02:05:34;;;;;;;11.75;7.20;;;;;;;;;;5079725;28;20036;-89
2023/06/20 02:08:01;;;;;;;8.07;7.25;;;;;;;;;;5085236;28;20058;-90
2023/06/20 02:10:28;;;;;;;8.70;7.68;;;;;;;;;;5083892;28;20028;-88
2023/06/20 02:12:55;;;;;;;9.25;7.20;;;;;;;;;;5097668;28;20020;-89
2023/06/20 02:15:23;;;;;;;8.00;7.20;;;;;;;;;;5101780;28;20089;-90
2023/06/20 02:17:49;;;;;;;10.23;7.38;;;;;;;;;;5102943;27;20005;-88
2023/06/20 02:20:15;;;;;;;9.73;7.55;;;;;;;;;;5112555;27;20016;-88
2023/06/20 02:22:46;;;;;;;9.35;7.38;;;;;;;;;;5100291;28;20353;-88
2023/06/20 02:25:17;;;;;;;7.85;6.60;;;20.90;99.90;;;;;;5101165;28;20031;-87
2023/06/20 02:27:43;;;;;;;9.02;6.70;;;;;;;;;;5111886;28;20055;-89
2023/06/20 02:30:10;;;;;;;9.57;6.85;;;;;;;;;;5101132;28;20047;-89
2023/06/20 02:32:37;;;;;;;8.07;6.88;;;;;;;;;;5099603;28;20092;-89
2023/06/20 02:35:06;;;;;;;7.50;6.00;;;20.90;99.90;;;;;;5095769;28;20329;-86
2023/06/20 02:37:34;;;;;;;8.63;6.47;;;;;;;;;;5101678;28;20031;-88
2023/06/20 02:40:00;;;;;;;7.63;5.97;;;;;;;;;;5098379;28;20046;-86
2023/06/20 02:42:26;;;;;;;7.50;6.35;;;;;;;;;;5094104;28;20051;-89
2023/06/20 02:44:52;;;;;;;8.98;7.15;;;;;;;;;;5082704;28;20032;-88
2023/06/20 02:47:33;;;;;;;7.15;6.45;;;20.70;99.90;;;;;;5089598;28;20024;-88
2023/06/20 02:50:10;;;;;;;9.38;6.50;;;20.60;99.90;;;;;;5096036;28;20036;-88
2023/06/20 02:52:49;;;;;;;7.40;6.07;;;;;;;;;;5081518;28;20070;-87
2023/06/20 02:55:22;;;;;;;7.38;6.35;;;;;;;;;;5098639;28;20035;-88
2023/06/20 02:57:52;;;;;;;8.95;6.50;;;;;;;;;;5078067;28;20036;-89
2023/06/20 03:00:18;;;;;;;7.43;6.10;;;20.50;99.90;;;;;;5094235;28;20036;-89
2023/06/20 03:02:59;;;;;;;7.85;7.05;;;20.50;99.90;;;;;;5081182;28;20024;-90
2023/06/20 03:05:28;;;;;;;8.93;6.65;;;20.50;99.90;;;;;;5085996;28;20028;-89
2023/06/20 03:07:55;;;;;;;8.13;6.55;;;20.40;99.90;;;;;;5072089;28;20031;-88
2023/06/20 03:10:22;;;;;;;8.13;6.82;;;;;;;;;;5081718;28;20052;-91
2023/06/20 03:12:49;;;;;;;8.63;6.60;;;;;;;;;;5096877;28;20037;-90
2023/06/20 03:15:15;;;;;;;8.82;7.35;;;;;;;;;;5100354;28;20031;-90
2023/06/20 03:17:41;;;;;;;9.02;6.88;;;;;;;;;;5094269;28;20024;-91
2023/06/20 03:20:09;;;;;;;7.93;6.88;;;;;;;;;;5095649;28;20039;-90
2023/06/20 03:22:35;;;;;;;9.10;7.30;;;;;;;;;;5101619;28;20024;-89
2023/06/20 03:25:01;;;;;;;8.80;7.68;;;;;;;;;;5100930;28;20047;-89
2023/06/20 03:27:27;;;;;;;9.55;6.93;;;;;;;;;;5099770;28;20497;-88
2023/06/20 03:29:53;;;;;;;9.75;7.50;;;;;;;;;;5091148;28;20031;-87
2023/06/20 03:32:19;;;;;;;9.55;8.52;;;;;;;;;;5102478;28;20161;-90
2023/06/20 03:34:45;;;;;;;11.77;8.35;;;;;;;;;;5103350;28;20031;-90
2023/06/20 03:37:11;;;;;;;11.25;7.80;;;;;;;;;;5100025;28;20023;-91
2023/06/20 03:39:37;;;;;;;10.23;8.38;;;;;;;;;;5103915;28;20023;-89
2023/06/20 03:42:03;;;;;;;11.30;8.45;;;;;;;;;;5099552;28;20039;-91
2023/06/20 03:44:29;;;;;;;10.75;8.40;;;;;;;;;;5096607;28;20081;-89
2023/06/20 03:46:55;;;;;;;10.15;8.60;;;;;;;;;;5094856;28;20111;-89
2023/06/20 03:49:21;;;;;;;11.35;8.68;;;;;;;;;;5090933;28;20039;-90
2023/06/20 03:51:47;;;;;;;10.93;8.85;;;;;;;;;;5096998;28;20027;-88
2023/06/20 03:54:13;;;;;;;9.80;8.13;;;;;;;;;;5089626;28;20020;-89
2023/06/20 03:56:39;;;;;;;10.00;8.70;;;;;;;;;;5092395;28;20315;-91
2023/06/20 03:59:05;;;;;;;9.68;8.13;;;;;;;;;;5095399;28;20034;-90
2023/06/20 04:01:31;;;;;;;8.63;7.70;;;;;;;;;;5084300;28;20048;-89
2023/06/20 04:03:57;;;;;;;9.45;7.28;;;;;;;;;;5081354;28;20394;-89
2023/06/20 04:06:29;;;;;;;9.35;8.10;;;;;;;;;;5095436;28;20043;-89
2023/06/20 04:08:55;;;;;;;9.63;8.00;;;;;;;;;;5092652;28;20033;-88
2023/06/20 04:11:21;;;;;;;11.57;8.82;;;;;;;;;;5093167;28;20031;-89
2023/06/20 04:13:47;;;;;;;9.45;8.00;;;;;;;;;;5077858;28;20028;-87
2023/06/20 04:16:13;;;;;;;8.93;8.02;;;;;;;;;;5094206;28;20048;-90
2023/06/20 04:18:40;;;;;;;9.05;7.82;;;;;;;;;;5089148;28;20040;-88
2023/06/20 04:21:07;;;;;;;10.52;8.48;;;;;;;;;;5093244;28;20029;-90
2023/06/20 04:23:33;;;;;;;10.55;8.82;;;;;;;;;;5092951;28;20059;-87
2023/06/20 04:25:59;;;;;;;10.98;8.27;;;;;;;;;;5096712;28;20024;-87
2023/06/20 04:28:25;;;;;;;12.00;8.95;;;;;;;;;;5100022;28;20031;-88
2023/06/20 04:30:53;;;;;;;11.15;9.05;;;;;;;;;;5086399;28;20052;-91
2023/06/20 04:33:19;;;;;;;10.65;8.93;;;;;;;;;;5074057;28;20029;-87
2023/06/20 04:35:45;;;;;;;11.90;9.82;;;;;;;;;;5099048;28;20028;-88
2023/06/20 04:38:12;;;;;;;11.38;9.48;;;;;;;;;;5107017;22;20067;-90
2023/06/20 04:40:38;;;;;;;11.00;9.10;;;;;;;;;;5101345;28;20027;-89
2023/06/20 04:43:04;;;;;;;10.13;8.95;;;;;;;;;;5099217;28;20036;-90
2023/06/20 04:45:30;;;;;;;11.77;9.35;;;;;;;;;;5095896;28;20031;-90
2023/06/20 04:47:57;;;;;;;13.20;9.60;;;;;;;;;;5092850;28;20029;-91
2023/06/20 04:50:23;;;;;;;12.98;10.25;;;;;;;;;;5078440;28;20083;-89
2023/06/20 04:52:49;;;;;;;12.32;9.82;;;;;;;;;;5083138;28;20084;-88
2023/06/20 04:55:15;;;;;;;12.25;11.05;;;;;;;;;;5077805;28;20027;-90
2023/06/20 04:57:42;;;;;;;13.88;10.77;;;;;;;;;;5081179;28;20097;-90
2023/06/20 05:00:14;;;;;;;15.10;10.95;;;;;;;;;;5068062;28;20033;-91
2023/06/20 05:02:44;;;;;;;12.25;10.88;;;;;;;;;;5088023;28;20093;-89
2023/06/20 05:05:10;;;;;;;15.43;11.25;;;;;;;;;;5076883;28;20027;-89
2023/06/20 05:07:37;;;;;;;12.93;10.90;;;;;;;;;;5076677;28;20025;-90
2023/06/20 05:10:03;;;;;;;12.75;11.18;;;;;;;;;;5072964;28;20166;-89
2023/06/20 05:12:29;;;;;;;13.07;11.27;;;;;;;;;;5072002;28;21970;-90
2023/06/20 05:14:55;;;;;;;13.70;11.32;;;;;;;;;;5097391;28;20016;-87
2023/06/20 05:17:21;;;;;;;16.80;11.68;;;;;;;;;;5085060;28;20012;-89
2023/06/20 05:19:47;;;;;;;13.10;11.65;;;;;;;;;;5089475;28;20020;-88
2023/06/20 05:22:13;;;;;;;16.77;10.45;;;;;;;;;;5092646;28;20017;-90
2023/06/20 05:24:39;;;;;;;16.02;10.55;;;;;;;;;;5094473;28;20037;-88
2023/06/20 05:27:05;;;;;;;11.85;8.60;;;;;;;;;;5091242;28;20017;-89
2023/06/20 05:29:31;;;;;;;12.48;9.32;;;;;;;;;;5086086;28;20100;-88
2023/06/20 05:31:57;;;;;;;10.15;8.43;;;;;;;;;;5088664;28;20029;-88
2023/06/20 05:34:23;;;;;;;10.15;8.07;;;;;;;;;;5083041;28;20029;-89
2023/06/20 05:36:49;;;;;;;9.52;8.38;;;;;;;;;;5108368;28;20009;-86
2023/06/20 05:39:15;;;;;;;12.48;9.05;;;;;;;;;;5096180;28;20016;-86
2023/06/20 05:41:42;;;;;;;12.20;8.40;;;;;;;;;;5092745;28;20021;-86
2023/06/20 05:44:08;;;;;;;11.68;9.15;;;;;;;;;;5088487;28;20036;-85
2023/06/20 05:46:34;;;;;;;9.75;7.63;;;;;;;;;;5088625;28;20028;-87
2023/06/20 05:49:00;;;;;;;9.55;8.30;;;;;;;;;;5088739;28;20024;-86
2023/06/20 05:51:29;;;;;;;10.55;8.63;;;;;;;;;;5094327;28;20047;-85
2023/06/20 05:53:57;;;;;;;19.85;8.90;;;;;;;;;;5093784;28;20040;-86
2023/06/20 05:56:23;;;;;;;10.55;8.57;;;;;;;;;;5096697;28;20040;-86
2023/06/20 05:58:49;;;;;;;16.10;9.68;;;;;;;;;;5092076;28;20013;-84
2023/06/20 06:01:15;;;;;;;14.18;8.57;;;;;;;;;;5082057;28;20034;-87
2023/06/20 06:03:41;;;;;;;11.40;9.05;;;;;;;;;;5075895;28;20021;-85
2023/06/20 06:06:09;;;;;;;14.43;9.90;;;;;;;;;;5078129;28;20479;-85
2023/06/20 06:08:35;;;;;;;14.63;9.90;;;;;;;;;;5083226;28;20016;-84
2023/06/20 06:11:01;;;;;;;12.15;9.30;;;;;;;;;;5080971;28;20051;-85
2023/06/20 06:13:28;;;;;;;12.35;10.13;;;;;;;;;;5082748;28;20657;-84
2023/06/20 06:15:54;;;;;;;10.05;8.70;;;;;;;;;;5075918;28;20031;-85
2023/06/20 06:18:20;;;;;;;10.90;9.30;;;;;;;;;;5081458;28;20074;-86
2023/06/20 06:20:46;;;;;;;12.00;9.32;;;;;;;;;;5077663;28;20028;-86
2023/06/20 06:23:12;;;;;;;13.85;10.25;;;;;;;;;;5077096;28;20035;-86
2023/06/20 06:25:38;;;;;;;10.40;9.20;;;;;;;;;;5075119;28;20035;-85
2023/06/20 06:28:04;;;;;;;13.32;9.70;;;;;;;;;;5077910;28;20028;-85
2023/06/20 06:30:32;;;;;;;13.45;10.13;;;;;;;;;;5076168;28;20029;-86
2023/06/20 06:32:59;;;;;;;12.45;9.32;;;;;;;;;;5077702;28;20021;-85
2023/06/20 06:35:25;;;;;;;14.23;10.18;;;;;;;;;;5080011;28;20028;-88
2023/06/20 06:37:52;;;;;;;12.85;9.18;;;;;;;;;;5081698;28;20025;-86
2023/06/20 06:40:20;;;;;;;13.85;9.48;;;;;;;;;;5072129;28;20150;-87
2023/06/20 06:42:46;;;;;;;11.15;8.52;;;;;;;;;;5075022;28;20024;-88
2023/06/20 06:45:12;;;;;;;10.38;8.98;;;;;;;;;;5083020;28;20029;-87
2023/06/20 06:47:38;;;;;;;15.05;9.13;;;;;;;;;;5077062;28;20074;-87
2023/06/20 06:50:04;;;;;;;11.68;8.70;;;;;;;;;;5077190;28;20033;-87
2023/06/20 06:52:32;;;;;;;10.45;8.68;;;;;;;;;;5072876;28;20559;-88
2023/06/20 06:54:58;;;;;;;10.93;8.95;;;;;;;;;;5078233;28;20028;-88
2023/06/20 06:57:24;;;;;;;10.90;8.75;;;;;;;;;;5077195;28;20025;-89
2023/06/20 06:59:50;;;;;;;11.63;9.27;;;;;;;;;;5076989;28;20028;-88
2023/06/20 07:02:16;;;;;;;14.73;9.02;;;;;;;;;;5079531;28;20074;-86
2023/06/20 07:04:42;;;;;;;10.23;8.93;;;;;;;;;;5075360;28;20038;-87
2023/06/20 07:07:08;;;;;;;12.95;8.93;;;;;;;;;;5090186;28;20028;-85
2023/06/20 07:09:36;;;;;;;10.18;9.10;;;;;;;;;;5079645;28;20031;-85
2023/06/20 07:12:02;;;;;;;12.60;8.70;;;;;;;;;;5081403;28;20046;-84
2023/06/20 07:14:28;;;;;;;9.93;8.75;;;;;;;;;;5082235;28;20032;-83
2023/06/20 07:16:54;;;;;;;9.35;8.35;;;;;;;;;;5077989;28;20020;-84
2023/06/20 07:19:20;;;;;;;10.43;8.57;;;;;;;;;;5075935;28;20036;-85
2023/06/20 07:21:46;;;;;;;10.15;8.40;;;;;;;;;;5075532;28;20478;-83
2023/06/20 07:24:12;;;;;;;10.23;8.60;;;;;;;;;;5077598;28;20025;-85
2023/06/20 07:26:38;;;;;;;10.45;8.07;;;;;;;;;;5077897;28;20029;-84
2023/06/20 07:29:04;;;;;;;9.32;7.90;;;;;;;;;;5080472;28;21425;-83
2023/06/20 07:31:30;;;;;;;8.35;7.32;;;;;;;;;;5070863;28;20505;-84
2023/06/20 07:33:56;;;;;;;9.43;7.53;;;;;;;;;;5081871;28;20036;-84
2023/06/20 07:36:22;;;;;;;10.30;7.93;;;;;;;;;;5073374;28;20446;-86
2023/06/20 07:38:48;;;;;;;7.68;6.78;;;;;;;;;;5078697;28;20029;-85
2023/06/20 07:41:14;;;;;;;11.48;7.20;;;;;;;;;;5076241;28;20039;-85
2023/06/20 07:43:40;;;;;;;10.07;7.53;;;;;;;;;;5077051;28;20024;-84
2023/06/20 07:46:06;;;;;;;9.57;6.53;;;;;;;;;;5065244;28;20032;-85
2023/06/20 07:48:32;;;;;;;8.48;6.50;;;;;;;;;;5074162;28;20036;-85
2023/06/20 07:50:58;;;;;;;7.57;5.90;;;;;;;;;;5073801;28;20067;-84
2023/06/20 07:53:24;;;;;;;6.68;5.50;;;;;;;;;;5077725;28;20096;-86
2023/06/20 07:55:50;;;;;;;5.43;4.85;;;;;;;;;;5076435;28;20012;-84
2023/06/20 07:58:19;;;;;;;7.43;6.00;;;;;;;;;;5069986;28;20024;-84
2023/06/20 08:00:45;;;;;;;9.55;7.18;;;;;;;;;;5065778;28;20030;-84
2023/06/20 08:03:11;;;;;;;7.35;6.20;;;;;;;;;;5076998;28;20413;-84
2023/06/20 08:05:37;;;;;;;7.95;5.90;;;;;;;;;;5078433;28;20092;-83
2023/06/20 08:08:03;;;;;;;8.93;6.38;;;;;;;;;;5076940;28;20120;-85
2023/06/20 08:10:29;;;;;;;7.88;6.20;;;;;;;;;;5077257;28;20499;-84
2023/06/20 08:12:55;;;;;;;8.75;6.70;;;;;;;;;;5075489;28;20017;-83
2023/06/20 08:15:21;;;;;;;10.20;7.05;;;;;;;;;;5079925;28;20386;-83
2023/06/20 08:17:47;;;;;;;7.18;6.20;;;;;;;;;;5073090;28;20021;-82
2023/06/20 08:20:13;;;;;;;9.02;6.55;;;;;;;;;;5075911;28;20032;-83
2023/06/20 08:22:39;;;;;;;8.43;6.63;;;;;;;;;;5076509;28;20028;-80
2023/06/20 08:25:06;;;;;;;10.10;7.03;;;;;;;;;;5070663;28;20032;-84
2023/06/20 08:27:32;;;;;;;8.57;7.38;;;;;;;;;;5070379;28;20029;-84
2023/06/20 08:29:58;;;;;;;8.63;5.82;;;;;;;;;;5070941;28;20033;-84
2023/06/20 08:32:24;;;;;;;8.55;5.85;;;;;;;;;;5065121;28;20032;-83
2023/06/20 08:34:50;;;;;;;7.22;6.10;;;;;;;;;;5072534;28;20036;-84
2023/06/20 08:37:21;;;;;;;7.00;5.43;;;;;;;;;;5074497;28;21669;-82
2023/06/20 08:39:47;;;;;;;8.32;5.55;;;;;;;;;;5079483;28;20092;-83
2023/06/20 08:42:13;;;;;;;7.32;4.88;;;;;;;;;;5073921;28;20032;-82
2023/06/20 08:44:39;;;;;;;7.05;4.50;;;;;;;;;;5075477;28;20028;-82
2023/06/20 08:47:06;;;;;;;7.32;4.85;;;;;;;;;;5073907;28;20040;-82
2023/06/20 08:49:32;;;;;;;10.25;5.55;;;;;;;;;;5077280;28;20036;-84
2023/06/20 08:51:58;;;;;;;6.20;4.72;;;;;;;;;;5078091;28;20046;-83
2023/06/20 08:54:28;;;;;;;6.10;5.13;;;28.00;99.90;;;;;;5076251;28;20036;-83
2023/06/20 08:56:54;;;;;;;5.85;5.25;;;;;;;;;;5077447;28;20028;-81
2023/06/20 08:59:24;;;;;;;7.10;5.50;;;;;;;;;;5075513;28;20116;-83
2023/06/20 09:01:50;;;;;;;7.63;5.03;;;;;;;;;;5083262;28;20033;-86
2023/06/20 09:04:17;;;;;;;6.78;5.18;;;28.00;98.70;;;;;;5099778;28;20080;-83
2023/06/20 09:06:45;;;;;;;6.00;5.40;;;;;;;;;;5098839;28;20012;-85
2023/06/20 09:09:17;;;;;;;5.68;5.00;;;;;;;;;;5090215;28;20029;-84
2023/06/20 09:11:52;;;;;;;7.95;5.18;;;;;;;;;;5103550;28;20500;-86
2023/06/20 09:14:18;;;;;;;6.75;5.00;;;;;;;;;;5113209;28;20036;-87
2023/06/20 09:16:47;;;;;;;7.15;5.63;;;;;;;;;;5086074;28;20820;-85
2023/06/20 09:19:13;;;;;;;7.22;5.63;;;;;;;;;;5072680;28;20035;-86
2023/06/20 09:21:39;;;;;;;7.93;6.05;;;;;;;;;;5075908;28;20035;-86
2023/06/20 09:24:06;;;;;;;6.63;5.38;;;;;;;;;;5089290;28;20039;-86
2023/06/20 09:26:33;;;;;;;6.38;5.20;;;28.70;97.70;;;;;;5077119;28;20067;-87
2023/06/20 09:29:15;;;;;;;7.00;5.50;;;;;;;;;;5086049;28;20025;-86
2023/06/20 09:31:47;;;;;;;6.35;5.75;;;;;;;;;;5083539;28;20040;-88
2023/06/20 09:34:13;;;;;;;8.80;5.63;;;;;;;;;;5082419;28;20091;-87
2023/06/20 09:36:40;;;;;;;7.05;5.35;;;;;;;;;;5076248;28;20759;-84
2023/06/20 09:39:10;;;;;;;6.82;5.13;;;29.00;97.50;;;;;;5073482;28;20101;-85
2023/06/20 09:41:36;;;;;;;5.63;4.82;;;;;;;;;;5085869;28;20035;-87
2023/06/20 09:44:02;;;;;;;8.75;5.32;;;;;;;;;;5075911;28;20032;-87
2023/06/20 09:46:30;;;;;;;6.97;5.40;;;;;;;;;;5080811;28;20103;-89
2023/06/20 09:48:56;;;;;;;6.20;5.60;;;;;;;;;;5078998;28;20433;-86
2023/06/20 09:51:23;;;;;;;7.00;5.10;;;;;;;;;;5079254;28;20028;-87
2023/06/20 09:54:05;;;;;;;6.65;5.53;;;29.20;96.60;;;;;;5081795;28;20025;-87
2023/06/20 09:56:57;;;;;;;7.13;4.95;;;29.20;96.20;;;;;;5076204;28;20028;-86
2023/06/20 09:59:27;;;;;;;5.60;4.78;;;;;;;;;;5077291;28;20032;-86
2023/06/20 10:01:54;;;;;;;6.22;4.70;;;;;;;;;;5079494;28;20040;-87
2023/06/20 10:04:21;;;;;;;5.88;4.40;;;;;;;;;;5082932;28;20064;-87
2023/06/20 10:06:47;;;;;;;6.88;4.10;;;;;;;;;;5075950;28;20400;-85
2023/06/20 10:09:14;;;;;;;7.30;4.85;;;;;;;;;;5087016;28;20028;-86
2023/06/20 10:11:41;;;;;;;6.32;4.78;;;30.10;92.40;;;;;;5080462;28;20032;-86
2023/06/20 10:14:09;;;;;;;11.77;4.63;;;;;;;;;;5076645;28;20043;-84
2023/06/20 10:16:35;;;;;;;4.68;3.78;;;;;;;;;;5081466;28;20033;-88
2023/06/20 10:19:17;;;;;;;5.00;4.22;;;;;;;;;;5076788;28;20447;-86
2023/06/20 10:21:59;;;;;;;5.47;4.55;;;30.20;91.50;;;;;;5074597;28;20089;-88
2023/06/20 10:24:26;;;;;;;6.97;4.35;;;;;;;;;;5075067;28;20032;-86
2023/06/20 10:26:54;;;;;;;6.40;4.35;;;30.40;91.00;;;;;;5073963;28;20024;-86
2023/06/20 10:29:21;;;;;;;6.88;4.40;;;30.60;90.70;;;;;;5070069;28;20494;-84
2023/06/20 10:32:04;;;;;;;5.03;4.32;;;30.50;89.80;;;;;;5070252;28;20494;-85
2023/06/20 10:34:34;;;;;;;9.38;4.53;;;30.20;90.10;;;;;;5074387;28;20074;-86
2023/06/20 10:37:34;;;;;;;6.18;4.40;;;30.40;90.30;;;;;;5073531;28;20028;-86
2023/06/20 10:40:00;;;;;;;5.80;4.15;;;;;;;;;;5066579;28;20040;-87
2023/06/20 10:42:38;;;;;;;7.22;4.47;;;;;;;;;;5072984;28;20134;-86
2023/06/20 10:45:25;;;;;;;7.03;4.45;;;30.50;89.80;;;;;;5072786;28;20402;-86
2023/06/20 10:47:52;;;;;;;4.97;4.07;;;;;;;;;;5073940;28;20024;-86
2023/06/20 10:50:18;;;;;;;5.50;4.30;;;;;;;;;;5061529;28;20044;-86
2023/06/20 10:52:44;;;;;;;7.43;4.63;;;;;;;;;;5073441;28;20024;-85
2023/06/20 10:55:21;;;;;;;5.88;4.30;;;;;;;;;;5079103;28;20055;-86
2023/06/20 10:57:48;;;;;;;5.45;4.63;;;;;;;;;;5078393;28;20045;-84
2023/06/20 11:00:17;;;;;;;5.50;4.20;;;30.80;86.10;;;;;;5070115;28;20040;-87
2023/06/20 11:02:46;;;;;;;;;;;30.90;85.70;;;;;;5071544;28;20033;-85
2023/06/20 11:05:12;;;;;;;6.30;4.10;;;;;;;;;;5071725;28;19948;-86
2023/06/20 11:07:59;;;;;;;6.07;3.92;;;30.90;85.40;;;;;;5087992;28;20470;-86
2023/06/20 11:10:51;;;;;;;7.53;4.80;;;30.90;85.10;;;;;;5070026;28;20033;-86
2023/06/20 11:13:17;;;;;;;6.10;4.38;;;;;;;;;;5062659;28;20060;-86
2023/06/20 11:15:43;;;;;;;7.57;5.03;;;;;;;;;;5066951;28;20028;-86
2023/06/20 11:18:09;;;;;;;6.28;4.25;;;;;;;;;;5065783;28;20029;-86
2023/06/20 11:20:39;;;;;;;4.97;4.00;;;31.30;82.90;;;;;;5065601;28;20029;-87
2023/06/20 11:23:05;;;;;;;5.88;4.35;;;;;;;;;;5088723;28;20036;-86
2023/06/20 11:25:32;;;;;;;6.95;4.45;;;31.30;83.40;;;;;;5070879;28;20032;-86
2023/06/20 11:28:09;;;;;;;9.00;4.93;;;31.30;82.30;;;;;;5067448;28;20063;-85
2023/06/20 11:30:36;;;;;;;6.00;4.25;;;;;;;;;;5069415;28;20028;-87
2023/06/20 11:33:05;;;;;;;8.20;5.85;;;31.20;82.70;;;;;;5071312;28;20032;-85
2023/06/20 11:35:46;;;;;;;7.22;5.25;;;31.40;82.10;;;;;;5086439;28;20024;-86
2023/06/20 11:38:14;;;;;;;6.13;4.25;;;31.50;81.50;;;;;;5069801;28;20052;-87
2023/06/20 11:40:41;;;;;;;7.97;4.90;;;31.60;80.10;;;;;;5068047;28;20040;-85
2023/06/20 11:43:07;;;;;;;6.85;4.72;;;;;;;;;;5065033;28;20039;-86
2023/06/20 11:45:34;;;;;;;9.50;4.47;;;;;;;;;;5072389;28;20111;-85
2023/06/20 11:48:11;;;;;;;8.25;4.53;;;31.90;77.60;;;;;;5074179;28;20101;-86
2023/06/20 11:50:37;;;;;;;7.65;4.53;;;;;;;;;;5069907;28;20104;-88
2023/06/20 11:53:03;;;;;;;7.35;4.47;;;;;;;;;;5071579;28;20036;-86
2023/06/20 11:55:48;;;;;;;5.22;4.28;;;31.90;77.70;;;;;;5067584;28;20134;-84
2023/06/20 11:58:14;;;;;;;7.43;4.20;;;;;;;;;;5071488;28;20394;-85
2023/06/20 12:00:41;;;;;;;4.97;4.40;;;;;;;;;;5071462;28;20048;-84
2023/06/20 12:03:10;;;;;;;6.63;4.10;;;;;;;;;;5073145;28;20115;-85
2023/06/20 12:05:40;;;;;;;7.05;4.40;;;;;;;;;;5066711;28;20020;-85
2023/06/20 12:08:06;;;;;;;5.38;4.10;;;;;;;;;;5070428;28;20028;-85
2023/06/20 12:10:34;;;;;;;9.48;4.55;;;;;;;;;;5083135;28;20043;-83
2023/06/20 12:13:04;;;;;;;5.72;4.03;;;;;;;;;;5085105;28;20017;-83
2023/06/20 12:15:30;;;;;;;5.80;4.22;;;;;;;;;;5067308;28;20021;-84
2023/06/20 12:17:56;;;;;;;7.90;4.45;;;;;;;;;;5071349;28;20033;-85
2023/06/20 12:20:22;;;;;;;7.90;4.78;;;;;;;;;;5069379;28;20089;-85
2023/06/20 12:22:49;;;;;;;8.30;4.70;;;;;;;;;;5063421;28;20032;-84
2023/06/20 12:25:15;;;;;;;4.95;4.03;;;;;;;;;;5067705;28;20581;-84
2023/06/20 12:27:41;;;;;;;6.55;4.38;;;;;;;;;;5066869;28;20409;-84
2023/06/20 12:30:08;;;;;;;7.72;4.78;;;;;;;;;;5059160;28;20091;-84
2023/06/20 12:32:35;;;;;;;5.63;4.10;;;;;;;;;;5062374;28;20358;-84
2023/06/20 12:35:01;;;;;;;5.82;4.40;;;;;;;;;;5063199;28;20037;-84
2023/06/20 12:37:27;;;;;;;6.43;4.18;;;;;;;;;;5067743;28;20029;-85
2023/06/20 12:39:53;;;;;;;8.05;4.20;;;;;;;;;;5072758;28;20081;-84
2023/06/20 12:42:19;;;;;;;7.18;4.40;;;;;;;;;;5069777;28;20686;-85
2023/06/20 12:44:45;;;;;;;7.03;4.43;;;;;;;;;;5068530;28;20649;-84
2023/06/20 12:47:15;;;;;;;6.50;3.90;;;;;;;;;;5065009;28;20040;-85
2023/06/20 12:49:41;;;;;;;6.40;4.60;;;;;;;;;;5067436;28;20033;-86
2023/06/20 12:52:09;;;;;;;7.25;4.20;;;;;;;;;;5071989;28;20028;-85
2023/06/20 12:54:35;;;;;;;6.50;4.40;;;;;;;;;;5057652;28;20482;-84
2023/06/20 12:57:01;;;;;;;10.50;4.65;;;;;;;;;;5076348;28;20043;-84
2023/06/20 12:59:27;;;;;;;7.93;3.97;;;;;;;;;;5077267;28;20430;-85
2023/06/20 13:01:53;;;;;;;7.35;4.45;;;;;;;;;;5073286;28;20086;-85
2023/06/20 13:04:19;;;;;;;6.50;4.40;;;;;;;;;;5080563;28;20036;-85
2023/06/20 13:06:45;;;;;;;6.55;4.50;;;;;;;;;;5078594;28;20071;-85
2023/06/20 13:09:11;;;;;;;7.32;4.85;;;;;;;;;;5074067;28;20032;-84
2023/06/20 13:11:37;;;;;;;9.10;4.60;;;;;;;;;;5071419;28;20024;-85
2023/06/20 13:14:03;;;;;;;7.32;4.47;;;;;;;;;;5081328;28;20078;-84
2023/06/20 13:16:31;;;;;;;6.28;4.07;;;;;;;;;;5074236;28;20021;-85
2023/06/20 13:18:59;;;;;;;8.68;4.50;;;;;;;;;;5075949;28;20398;-86
2023/06/20 13:21:25;;;;;;;10.45;4.68;;;;;;;;;;5072431;28;20030;-86
2023/06/20 13:23:51;;;;;;;9.65;4.93;;;;;;;;;;5073695;28;20036;-85
2023/06/20 13:26:19;;;;;;;8.98;4.53;;;;;;;;;;5074406;28;20128;-85
2023/06/20 13:28:45;;;;;;;8.60;4.47;;;;;;;;;;5076330;28;20506;-85
2023/06/20 13:31:11;;;;;;;7.53;4.78;;;;;;;;;;5072140;28;20043;-85
2023/06/20 13:33:37;;;;;;;7.55;5.07;;;;;;;;;;5073713;28;20017;-84
2023/06/20 13:36:07;;;;;;;10.10;4.88;;;;;;;;;;5071231;28;20092;-84
2023/06/20 13:38:33;;;;;;;9.40;4.53;;;;;;;;;;5077268;28;20055;-85
2023/06/20 13:40:59;;;;;;;8.48;4.68;;;;;;;;;;5075959;28;20086;-86
2023/06/20 13:43:25;;;;;;;8.73;4.75;;;;;;;;;;5072377;28;20089;-84
2023/06/20 13:45:51;;;;;;;10.18;5.00;;;;;;;;;;5070090;28;20040;-84
2023/06/20 13:48:17;;;;;;;9.90;4.97;;;;;;;;;;5070777;28;20032;-85
2023/06/20 13:50:43;;;;;;;8.48;5.05;;;;;;;;;;5069805;28;20036;-86
2023/06/20 13:53:10;;;;;;;10.63;5.72;;;;;;;;;;5077010;28;20032;-86
2023/06/20 13:55:36;;;;;;;8.05;4.95;;;;;;;;;;5075461;28;20199;-84
2023/06/20 13:58:03;;;;;;;8.10;4.60;;;;;;;;;;5074010;28;20186;-85
2023/06/20 14:00:31;;;;;;;11.10;4.82;;;;;;;;;;5076586;28;22856;-85
2023/06/20 14:02:57;;;;;;;10.63;5.13;;;;;;;;;;5077708;28;20064;-85
2023/06/20 14:05:23;;;;;;;10.57;5.15;;;;;;;;;;5078268;28;20036;-85
2023/06/20 14:07:49;;;;;;;9.77;5.03;;;;;;;;;;5072866;28;20109;-85
2023/06/20 14:10:15;;;;;;;10.93;4.90;;;;;;;;;;5071739;28;20107;-84
2023/06/20 14:12:41;;;;;;;8.23;5.22;;;;;;;;;;5073985;28;20021;-86
2023/06/20 14:15:07;;;;;;;8.27;4.63;;;;;;;;;;5072204;28;20032;-83
2023/06/20 14:17:34;;;;;;;8.48;4.80;;;;;;;;;;5070447;28;20500;-85
2023/06/20 14:19:59;;;;;;;7.05;4.93;;;;;;;;;;5068490;28;20025;-84
2023/06/20 14:22:25;;;;;;;8.27;4.70;;;;;;;;;;5073839;28;20062;-85
2023/06/20 14:24:51;;;;;;;11.20;4.93;;;;;;;;;;5074548;28;20040;-84
2023/06/20 14:27:19;;;;;;;7.75;4.55;;;;;;;;;;5073471;28;20039;-85